sensor_id;sensor_type;location;lat;lon;timestamp;P1;durP1;ratioP1;P2;durP2;ratioP2
39930;SDS011;26635;-35.248;149.138;2023-07-30T00:00:59;1.30;;;0.60;;
39930;SDS011;26635;-35.248;149.138;2023-07-30T00:03:29;1.20;;;0.75;;
39930;SDS011;26635;-35.248;149.138;2023-07-30T00:06:00;2.40;;;0.60;;
39930;SDS011;26635;-35.248;149.138;2023-07-30T00:08:31;1.17;;;0.70;;
39930;SDS011;26635;-35.248;149.138;2023-07-30T00:11:02;1.98;;;0.80;;
39930;SDS011;26635;-35.248;149.138;2023-07-30T00:13:33;1.23;;;0.60;;
39930;SDS011;26635;-35.248;149.138;2023-07-30T00:16:04;1.63;;;1.00;;
39930;SDS011;26635;-35.248;149.138;2023-07-30T00:18:34;1.10;;;0.50;;
39930;SDS011;26635;-35.248;149.138;2023-07-30T00:21:05;1.83;;;0.57;;
39930;SDS011;26635;-35.248;149.138;2023-07-30T00:23:35;1.75;;;0.60;;
39930;SDS011;26635;-35.248;149.138;2023-07-30T00:26:05;2.53;;;0.50;;
39930;SDS011;26635;-35.248;149.138;2023-07-30T00:28:36;1.00;;;0.32;;
39930;SDS011;26635;-35.248;149.138;2023-07-30T00:31:06;1.85;;;0.22;;
39930;SDS011;26635;-35.248;149.138;2023-07-30T00:33:37;1.20;;;0.47;;
39930;SDS011;26635;-35.248;149.138;2023-07-30T00:36:07;1.75;;;0.82;;
39930;SDS011;26635;-35.248;149.138;2023-07-30T00:38:38;1.15;;;0.55;;
39930;SDS011;26635;-35.248;149.138;2023-07-30T00:41:08;1.00;;;0.68;;
39930;SDS011;26635;-35.248;149.138;2023-07-30T00:43:38;1.02;;;0.40;;
39930;SDS011;26635;-35.248;149.138;2023-07-30T00:46:09;0.85;;;0.40;;
39930;SDS011;26635;-35.248;149.138;2023-07-30T00:48:41;0.63;;;0.30;;
39930;SDS011;26635;-35.248;149.138;2023-07-30T00:51:14;4.50;;;1.27;;
39930;SDS011;26635;-35.248;149.138;2023-07-30T00:53:45;0.50;;;0.20;;
39930;SDS011;26635;-35.248;149.138;2023-07-30T00:56:16;0.95;;;0.30;;
39930;SDS011;26635;-35.248;149.138;2023-07-30T00:58:47;1.42;;;0.40;;
39930;SDS011;26635;-35.248;149.138;2023-07-30T01:01:18;0.77;;;0.40;;
39930;SDS011;26635;-35.248;149.138;2023-07-30T01:03:49;0.60;;;0.30;;
39930;SDS011;26635;-35.248;149.138;2023-07-30T01:06:20;1.88;;;0.40;;
39930;SDS011;26635;-35.248;149.138;2023-07-30T01:08:51;2.28;;;0.50;;
39930;SDS011;26635;-35.248;149.138;2023-07-30T01:11:21;2.22;;;0.25;;
39930;SDS011;26635;-35.248;149.138;2023-07-30T01:13:52;0.47;;;0.20;;
39930;SDS011;26635;-35.248;149.138;2023-07-30T01:16:23;1.20;;;0.20;;
39930;SDS011;26635;-35.248;149.138;2023-07-30T01:18:54;1.33;;;0.30;;
39930;SDS011;26635;-35.248;149.138;2023-07-30T01:21:27;1.13;;;0.20;;
39930;SDS011;26635;-35.248;149.138;2023-07-30T01:23:59;0.85;;;0.20;;
39930;SDS011;26635;-35.248;149.138;2023-07-30T01:26:46;1.42;;;0.40;;
39930;SDS011;26635;-35.248;149.138;2023-07-30T01:29:45;0.28;;;0.15;;
39930;SDS011;26635;-35.248;149.138;2023-07-30T01:32:26;1.60;;;0.35;;
39930;SDS011;26635;-35.248;149.138;2023-07-30T01:34:57;1.20;;;0.20;;
39930;SDS011;26635;-35.248;149.138;2023-07-30T01:37:30;4.90;;;0.40;;
39930;SDS011;26635;-35.248;149.138;2023-07-30T01:40:00;0.47;;;0.20;;
39930;SDS011;26635;-35.248;149.138;2023-07-30T01:42:31;0.98;;;0.20;;
39930;SDS011;26635;-35.248;149.138;2023-07-30T01:45:02;0.15;;;0.10;;
39930;SDS011;26635;-35.248;149.138;2023-07-30T01:47:34;0.45;;;0.10;;
39930;SDS011;26635;-35.248;149.138;2023-07-30T01:50:05;0.50;;;0.20;;
39930;SDS011;26635;-35.248;149.138;2023-07-30T01:52:36;1.67;;;0.22;;
39930;SDS011;26635;-35.248;149.138;2023-07-30T01:55:07;2.65;;;0.20;;
39930;SDS011;26635;-35.248;149.138;2023-07-30T01:57:57;2.40;;;0.25;;
39930;SDS011;26635;-35.248;149.138;2023-07-30T02:00:28;1.65;;;0.30;;
39930;SDS011;26635;-35.248;149.138;2023-07-30T02:03:12;0.30;;;0.17;;
39930;SDS011;26635;-35.248;149.138;2023-07-30T02:05:42;1.17;;;0.20;;
39930;SDS011;26635;-35.248;149.138;2023-07-30T02:08:13;2.35;;;0.22;;
39930;SDS011;26635;-35.248;149.138;2023-07-30T02:10:45;0.82;;;0.20;;
39930;SDS011;26635;-35.248;149.138;2023-07-30T02:13:25;1.02;;;0.20;;
39930;SDS011;26635;-35.248;149.138;2023-07-30T02:15:56;0.98;;;0.10;;
39930;SDS011;26635;-35.248;149.138;2023-07-30T02:18:26;2.30;;;0.60;;
39930;SDS011;26635;-35.248;149.138;2023-07-30T02:20:56;1.10;;;0.20;;
39930;SDS011;26635;-35.248;149.138;2023-07-30T02:23:27;1.38;;;0.30;;
39930;SDS011;26635;-35.248;149.138;2023-07-30T02:25:57;1.55;;;0.20;;
39930;SDS011;26635;-35.248;149.138;2023-07-30T02:28:28;1.08;;;0.20;;
39930;SDS011;26635;-35.248;149.138;2023-07-30T02:30:59;0.73;;;0.20;;
39930;SDS011;26635;-35.248;149.138;2023-07-30T02:33:30;0.82;;;0.25;;
39930;SDS011;26635;-35.248;149.138;2023-07-30T02:36:01;0.85;;;0.20;;
39930;SDS011;26635;-35.248;149.138;2023-07-30T02:38:32;1.40;;;0.10;;
39930;SDS011;26635;-35.248;149.138;2023-07-30T02:41:02;0.77;;;0.30;;
39930;SDS011;26635;-35.248;149.138;2023-07-30T02:43:32;0.60;;;0.10;;
39930;SDS011;26635;-35.248;149.138;2023-07-30T02:46:03;0.85;;;0.10;;
39930;SDS011;26635;-35.248;149.138;2023-07-30T02:48:35;0.65;;;0.10;;
39930;SDS011;26635;-35.248;149.138;2023-07-30T02:51:05;0.43;;;0.10;;
39930;SDS011;26635;-35.248;149.138;2023-07-30T02:53:36;1.02;;;0.20;;
39930;SDS011;26635;-35.248;149.138;2023-07-30T02:56:06;1.48;;;0.10;;
39930;SDS011;26635;-35.248;149.138;2023-07-30T02:58:37;0.40;;;0.10;;
39930;SDS011;26635;-35.248;149.138;2023-07-30T03:01:09;0.68;;;0.10;;
39930;SDS011;26635;-35.248;149.138;2023-07-30T03:03:39;1.40;;;0.10;;
39930;SDS011;26635;-35.248;149.138;2023-07-30T03:06:10;1.05;;;0.20;;
39930;SDS011;26635;-35.248;149.138;2023-07-30T03:08:40;1.35;;;0.20;;
39930;SDS011;26635;-35.248;149.138;2023-07-30T03:11:12;2.33;;;0.15;;
39930;SDS011;26635;-35.248;149.138;2023-07-30T03:13:44;1.27;;;0.30;;
39930;SDS011;26635;-35.248;149.138;2023-07-30T03:16:16;0.17;;;0.17;;
39930;SDS011;26635;-35.248;149.138;2023-07-30T03:18:47;2.00;;;0.10;;
39930;SDS011;26635;-35.248;149.138;2023-07-30T03:21:18;0.45;;;0.17;;
39930;SDS011;26635;-35.248;149.138;2023-07-30T03:23:49;1.05;;;0.10;;
39930;SDS011;26635;-35.248;149.138;2023-07-30T03:26:21;1.80;;;0.20;;
39930;SDS011;26635;-35.248;149.138;2023-07-30T03:28:52;1.13;;;0.20;;
39930;SDS011;26635;-35.248;149.138;2023-07-30T03:31:23;0.60;;;0.10;;
39930;SDS011;26635;-35.248;149.138;2023-07-30T03:33:53;0.32;;;0.10;;
39930;SDS011;26635;-35.248;149.138;2023-07-30T03:36:24;0.10;;;0.10;;
39930;SDS011;26635;-35.248;149.138;2023-07-30T03:38:54;1.27;;;0.13;;
39930;SDS011;26635;-35.248;149.138;2023-07-30T03:41:25;1.65;;;0.10;;
39930;SDS011;26635;-35.248;149.138;2023-07-30T03:43:55;0.95;;;0.20;;
39930;SDS011;26635;-35.248;149.138;2023-07-30T03:46:26;0.50;;;0.20;;
39930;SDS011;26635;-35.248;149.138;2023-07-30T03:48:57;3.35;;;0.30;;
39930;SDS011;26635;-35.248;149.138;2023-07-30T03:51:28;1.85;;;0.35;;
39930;SDS011;26635;-35.248;149.138;2023-07-30T03:53:59;0.55;;;0.20;;
39930;SDS011;26635;-35.248;149.138;2023-07-30T03:56:30;0.75;;;0.20;;
39930;SDS011;26635;-35.248;149.138;2023-07-30T03:59:03;1.63;;;0.20;;
39930;SDS011;26635;-35.248;149.138;2023-07-30T04:01:33;0.55;;;0.10;;
39930;SDS011;26635;-35.248;149.138;2023-07-30T04:04:05;0.35;;;0.13;;
39930;SDS011;26635;-35.248;149.138;2023-07-30T04:06:35;0.95;;;0.20;;
39930;SDS011;26635;-35.248;149.138;2023-07-30T04:09:05;0.30;;;0.10;;
39930;SDS011;26635;-35.248;149.138;2023-07-30T04:11:37;1.00;;;0.30;;
39930;SDS011;26635;-35.248;149.138;2023-07-30T04:14:07;1.33;;;0.50;;
39930;SDS011;26635;-35.248;149.138;2023-07-30T04:16:37;0.73;;;0.20;;
39930;SDS011;26635;-35.248;149.138;2023-07-30T04:19:08;3.70;;;0.57;;
39930;SDS011;26635;-35.248;149.138;2023-07-30T04:21:38;1.48;;;0.40;;
39930;SDS011;26635;-35.248;149.138;2023-07-30T04:24:08;1.10;;;0.10;;
39930;SDS011;26635;-35.248;149.138;2023-07-30T04:26:39;0.40;;;0.10;;
39930;SDS011;26635;-35.248;149.138;2023-07-30T04:29:10;0.38;;;0.10;;
39930;SDS011;26635;-35.248;149.138;2023-07-30T04:31:42;0.30;;;0.10;;
39930;SDS011;26635;-35.248;149.138;2023-07-30T04:34:13;2.53;;;0.20;;
39930;SDS011;26635;-35.248;149.138;2023-07-30T04:36:43;0.10;;;0.00;;
39930;SDS011;26635;-35.248;149.138;2023-07-30T04:39:14;0.40;;;0.10;;
39930;SDS011;26635;-35.248;149.138;2023-07-30T04:41:45;1.08;;;0.17;;
39930;SDS011;26635;-35.248;149.138;2023-07-30T04:44:16;0.55;;;0.10;;
39930;SDS011;26635;-35.248;149.138;2023-07-30T04:46:46;0.22;;;0.10;;
39930;SDS011;26635;-35.248;149.138;2023-07-30T04:49:17;1.25;;;0.20;;
39930;SDS011;26635;-35.248;149.138;2023-07-30T04:51:47;2.63;;;0.20;;
39930;SDS011;26635;-35.248;149.138;2023-07-30T04:54:17;0.38;;;0.10;;
39930;SDS011;26635;-35.248;149.138;2023-07-30T04:56:49;0.85;;;0.30;;
39930;SDS011;26635;-35.248;149.138;2023-07-30T04:59:19;1.23;;;0.20;;
39930;SDS011;26635;-35.248;149.138;2023-07-30T05:01:49;2.63;;;0.88;;
39930;SDS011;26635;-35.248;149.138;2023-07-30T05:04:20;1.55;;;1.15;;
39930;SDS011;26635;-35.248;149.138;2023-07-30T05:06:50;1.95;;;0.68;;
39930;SDS011;26635;-35.248;149.138;2023-07-30T05:09:20;1.23;;;0.50;;
39930;SDS011;26635;-35.248;149.138;2023-07-30T05:11:51;1.42;;;0.50;;
39930;SDS011;26635;-35.248;149.138;2023-07-30T05:14:21;0.80;;;0.28;;
39930;SDS011;26635;-35.248;149.138;2023-07-30T05:16:52;0.80;;;0.30;;
39930;SDS011;26635;-35.248;149.138;2023-07-30T05:19:22;1.38;;;0.43;;
39930;SDS011;26635;-35.248;149.138;2023-07-30T05:21:52;3.72;;;1.45;;
39930;SDS011;26635;-35.248;149.138;2023-07-30T05:24:23;2.70;;;1.60;;
39930;SDS011;26635;-35.248;149.138;2023-07-30T05:26:54;3.15;;;1.15;;
39930;SDS011;26635;-35.248;149.138;2023-07-30T05:29:24;3.13;;;0.90;;
39930;SDS011;26635;-35.248;149.138;2023-07-30T05:31:55;2.92;;;0.90;;
39930;SDS011;26635;-35.248;149.138;2023-07-30T05:34:25;1.75;;;0.47;;
39930;SDS011;26635;-35.248;149.138;2023-07-30T05:36:56;3.00;;;0.60;;
39930;SDS011;26635;-35.248;149.138;2023-07-30T05:39:26;1.58;;;0.47;;
39930;SDS011;26635;-35.248;149.138;2023-07-30T05:41:56;0.65;;;0.30;;
39930;SDS011;26635;-35.248;149.138;2023-07-30T05:44:27;1.27;;;0.38;;
39930;SDS011;26635;-35.248;149.138;2023-07-30T05:46:57;1.13;;;0.30;;
39930;SDS011;26635;-35.248;149.138;2023-07-30T05:49:27;2.25;;;0.52;;
39930;SDS011;26635;-35.248;149.138;2023-07-30T05:51:57;0.95;;;0.32;;
39930;SDS011;26635;-35.248;149.138;2023-07-30T05:54:28;0.52;;;0.20;;
39930;SDS011;26635;-35.248;149.138;2023-07-30T05:56:58;0.82;;;0.30;;
39930;SDS011;26635;-35.248;149.138;2023-07-30T05:59:28;1.10;;;0.50;;
39930;SDS011;26635;-35.248;149.138;2023-07-30T06:02:01;1.13;;;0.20;;
39930;SDS011;26635;-35.248;149.138;2023-07-30T06:04:32;2.05;;;0.40;;
39930;SDS011;26635;-35.248;149.138;2023-07-30T06:07:02;0.90;;;0.20;;
39930;SDS011;26635;-35.248;149.138;2023-07-30T06:09:33;3.15;;;0.30;;
39930;SDS011;26635;-35.248;149.138;2023-07-30T06:12:04;0.40;;;0.20;;
39930;SDS011;26635;-35.248;149.138;2023-07-30T06:14:35;0.95;;;0.25;;
39930;SDS011;26635;-35.248;149.138;2023-07-30T06:17:05;0.77;;;0.35;;
39930;SDS011;26635;-35.248;149.138;2023-07-30T06:19:36;2.08;;;0.30;;
39930;SDS011;26635;-35.248;149.138;2023-07-30T06:22:07;0.38;;;0.30;;
39930;SDS011;26635;-35.248;149.138;2023-07-30T06:24:38;1.17;;;0.20;;
39930;SDS011;26635;-35.248;149.138;2023-07-30T06:27:09;1.27;;;0.10;;
39930;SDS011;26635;-35.248;149.138;2023-07-30T06:29:40;0.95;;;0.20;;
39930;SDS011;26635;-35.248;149.138;2023-07-30T06:32:11;2.35;;;0.35;;
39930;SDS011;26635;-35.248;149.138;2023-07-30T06:34:41;1.45;;;0.73;;
39930;SDS011;26635;-35.248;149.138;2023-07-30T06:37:11;2.53;;;0.30;;
39930;SDS011;26635;-35.248;149.138;2023-07-30T06:39:42;0.52;;;0.10;;
39930;SDS011;26635;-35.248;149.138;2023-07-30T06:42:12;1.05;;;0.40;;
39930;SDS011;26635;-35.248;149.138;2023-07-30T06:44:42;0.43;;;0.10;;
39930;SDS011;26635;-35.248;149.138;2023-07-30T06:47:13;0.68;;;0.20;;
39930;SDS011;26635;-35.248;149.138;2023-07-30T06:49:43;2.47;;;0.30;;
39930;SDS011;26635;-35.248;149.138;2023-07-30T06:52:14;1.35;;;0.15;;
39930;SDS011;26635;-35.248;149.138;2023-07-30T06:54:44;1.17;;;0.10;;
39930;SDS011;26635;-35.248;149.138;2023-07-30T06:57:15;2.80;;;0.35;;
39930;SDS011;26635;-35.248;149.138;2023-07-30T06:59:45;0.57;;;0.28;;
39930;SDS011;26635;-35.248;149.138;2023-07-30T07:02:15;1.50;;;0.32;;
39930;SDS011;26635;-35.248;149.138;2023-07-30T07:04:46;1.60;;;0.50;;
39930;SDS011;26635;-35.248;149.138;2023-07-30T07:07:16;0.75;;;0.30;;
39930;SDS011;26635;-35.248;149.138;2023-07-30T07:09:46;1.58;;;0.22;;
39930;SDS011;26635;-35.248;149.138;2023-07-30T07:12:18;0.43;;;0.20;;
39930;SDS011;26635;-35.248;149.138;2023-07-30T07:14:48;0.63;;;0.20;;
39930;SDS011;26635;-35.248;149.138;2023-07-30T07:17:18;1.52;;;0.30;;
39930;SDS011;26635;-35.248;149.138;2023-07-30T07:19:49;1.80;;;0.30;;
39930;SDS011;26635;-35.248;149.138;2023-07-30T07:22:20;0.85;;;0.20;;
39930;SDS011;26635;-35.248;149.138;2023-07-30T07:24:51;0.65;;;0.20;;
39930;SDS011;26635;-35.248;149.138;2023-07-30T07:27:22;2.03;;;0.25;;
39930;SDS011;26635;-35.248;149.138;2023-07-30T07:29:52;1.55;;;0.20;;
39930;SDS011;26635;-35.248;149.138;2023-07-30T07:32:23;1.75;;;0.25;;
39930;SDS011;26635;-35.248;149.138;2023-07-30T07:34:55;0.20;;;0.10;;
39930;SDS011;26635;-35.248;149.138;2023-07-30T07:37:25;0.85;;;0.25;;
39930;SDS011;26635;-35.248;149.138;2023-07-30T07:39:56;0.40;;;0.20;;
39930;SDS011;26635;-35.248;149.138;2023-07-30T07:42:28;0.70;;;0.22;;
39930;SDS011;26635;-35.248;149.138;2023-07-30T07:44:59;2.92;;;0.30;;
39930;SDS011;26635;-35.248;149.138;2023-07-30T07:47:29;0.73;;;0.30;;
39930;SDS011;26635;-35.248;149.138;2023-07-30T07:50:00;0.60;;;0.30;;
39930;SDS011;26635;-35.248;149.138;2023-07-30T07:52:30;1.35;;;0.20;;
39930;SDS011;26635;-35.248;149.138;2023-07-30T07:55:00;0.60;;;0.20;;
39930;SDS011;26635;-35.248;149.138;2023-07-30T07:57:31;2.78;;;0.30;;
39930;SDS011;26635;-35.248;149.138;2023-07-30T08:00:05;2.42;;;0.30;;
39930;SDS011;26635;-35.248;149.138;2023-07-30T08:02:36;1.67;;;0.30;;
39930;SDS011;26635;-35.248;149.138;2023-07-30T08:05:06;0.70;;;0.30;;
39930;SDS011;26635;-35.248;149.138;2023-07-30T08:07:37;0.77;;;0.50;;
39930;SDS011;26635;-35.248;149.138;2023-07-30T08:10:07;1.17;;;0.35;;
39930;SDS011;26635;-35.248;149.138;2023-07-30T08:12:39;1.00;;;0.40;;
39930;SDS011;26635;-35.248;149.138;2023-07-30T08:15:09;2.22;;;0.40;;
39930;SDS011;26635;-35.248;149.138;2023-07-30T08:17:40;3.38;;;0.93;;
39930;SDS011;26635;-35.248;149.138;2023-07-30T08:20:10;2.55;;;0.50;;
39930;SDS011;26635;-35.248;149.138;2023-07-30T08:22:41;2.50;;;0.68;;
39930;SDS011;26635;-35.248;149.138;2023-07-30T08:25:11;3.35;;;0.50;;
39930;SDS011;26635;-35.248;149.138;2023-07-30T08:27:42;1.38;;;0.60;;
39930;SDS011;26635;-35.248;149.138;2023-07-30T08:30:12;3.22;;;0.60;;
39930;SDS011;26635;-35.248;149.138;2023-07-30T08:32:42;2.78;;;0.85;;
39930;SDS011;26635;-35.248;149.138;2023-07-30T08:35:13;1.40;;;0.55;;
39930;SDS011;26635;-35.248;149.138;2023-07-30T08:37:43;4.50;;;1.10;;
39930;SDS011;26635;-35.248;149.138;2023-07-30T08:40:14;2.70;;;0.60;;
39930;SDS011;26635;-35.248;149.138;2023-07-30T08:42:45;1.88;;;0.88;;
39930;SDS011;26635;-35.248;149.138;2023-07-30T08:45:15;2.42;;;0.60;;
39930;SDS011;26635;-35.248;149.138;2023-07-30T08:47:46;2.20;;;0.90;;
39930;SDS011;26635;-35.248;149.138;2023-07-30T08:50:18;2.03;;;0.88;;
39930;SDS011;26635;-35.248;149.138;2023-07-30T08:52:49;2.03;;;0.85;;
39930;SDS011;26635;-35.248;149.138;2023-07-30T08:55:21;2.42;;;1.13;;
39930;SDS011;26635;-35.248;149.138;2023-07-30T08:57:53;3.72;;;2.58;;
39930;SDS011;26635;-35.248;149.138;2023-07-30T09:00:25;4.38;;;2.03;;
39930;SDS011;26635;-35.248;149.138;2023-07-30T09:03:02;4.45;;;2.15;;
39930;SDS011;26635;-35.248;149.138;2023-07-30T09:05:34;2.22;;;1.40;;
39930;SDS011;26635;-35.248;149.138;2023-07-30T09:08:05;3.17;;;0.93;;
39930;SDS011;26635;-35.248;149.138;2023-07-30T09:10:40;1.08;;;0.60;;
39930;SDS011;26635;-35.248;149.138;2023-07-30T09:13:11;3.63;;;0.77;;
39930;SDS011;26635;-35.248;149.138;2023-07-30T09:15:49;4.35;;;0.80;;
39930;SDS011;26635;-35.248;149.138;2023-07-30T09:18:21;2.42;;;0.88;;
39930;SDS011;26635;-35.248;149.138;2023-07-30T09:20:51;1.83;;;0.65;;
39930;SDS011;26635;-35.248;149.138;2023-07-30T09:23:22;2.40;;;0.50;;
39930;SDS011;26635;-35.248;149.138;2023-07-30T09:25:52;1.60;;;0.70;;
39930;SDS011;26635;-35.248;149.138;2023-07-30T09:28:30;1.67;;;0.60;;
39930;SDS011;26635;-35.248;149.138;2023-07-30T09:31:02;2.70;;;0.65;;
39930;SDS011;26635;-35.248;149.138;2023-07-30T09:33:48;3.50;;;0.75;;
39930;SDS011;26635;-35.248;149.138;2023-07-30T09:36:19;1.38;;;0.57;;
39930;SDS011;26635;-35.248;149.138;2023-07-30T09:38:52;1.58;;;0.60;;
39930;SDS011;26635;-35.248;149.138;2023-07-30T09:41:24;0.75;;;0.40;;
39930;SDS011;26635;-35.248;149.138;2023-07-30T09:43:58;1.00;;;0.60;;
39930;SDS011;26635;-35.248;149.138;2023-07-30T09:46:28;4.60;;;1.38;;
39930;SDS011;26635;-35.248;149.138;2023-07-30T09:48:59;0.90;;;0.52;;
39930;SDS011;26635;-35.248;149.138;2023-07-30T09:51:33;1.60;;;0.52;;
39930;SDS011;26635;-35.248;149.138;2023-07-30T09:54:10;3.00;;;0.60;;
39930;SDS011;26635;-35.248;149.138;2023-07-30T09:56:41;1.92;;;0.50;;
39930;SDS011;26635;-35.248;149.138;2023-07-30T09:59:12;1.05;;;0.55;;
39930;SDS011;26635;-35.248;149.138;2023-07-30T10:01:43;0.98;;;0.50;;
39930;SDS011;26635;-35.248;149.138;2023-07-30T10:04:24;0.50;;;0.20;;
39930;SDS011;26635;-35.248;149.138;2023-07-30T10:06:58;1.45;;;0.50;;
39930;SDS011;26635;-35.248;149.138;2023-07-30T10:09:40;1.52;;;0.40;;
39930;SDS011;26635;-35.248;149.138;2023-07-30T10:12:18;1.02;;;0.30;;
39930;SDS011;26635;-35.248;149.138;2023-07-30T10:14:55;1.02;;;0.30;;
39930;SDS011;26635;-35.248;149.138;2023-07-30T10:17:26;0.50;;;0.30;;
39930;SDS011;26635;-35.248;149.138;2023-07-30T10:23:09;2.25;;;0.40;;
39930;SDS011;26635;-35.248;149.138;2023-07-30T10:25:52;2.70;;;0.50;;
39930;SDS011;26635;-35.248;149.138;2023-07-30T10:31:02;1.63;;;0.65;;
39930;SDS011;26635;-35.248;149.138;2023-07-30T10:33:47;1.37;;;0.77;;
39930;SDS011;26635;-35.248;149.138;2023-07-30T10:36:31;2.67;;;0.45;;
39930;SDS011;26635;-35.248;149.138;2023-07-30T10:39:14;0.60;;;0.30;;
39930;SDS011;26635;-35.248;149.138;2023-07-30T10:41:50;1.67;;;0.52;;
39930;SDS011;26635;-35.248;149.138;2023-07-30T10:44:26;1.55;;;0.68;;
39930;SDS011;26635;-35.248;149.138;2023-07-30T10:46:58;1.55;;;0.47;;
39930;SDS011;26635;-35.248;149.138;2023-07-30T10:49:35;2.17;;;0.32;;
39930;SDS011;26635;-35.248;149.138;2023-07-30T10:52:18;0.60;;;0.60;;
39930;SDS011;26635;-35.248;149.138;2023-07-30T10:54:51;1.38;;;0.50;;
39930;SDS011;26635;-35.248;149.138;2023-07-30T10:57:30;0.70;;;0.43;;
39930;SDS011;26635;-35.248;149.138;2023-07-30T11:00:01;0.82;;;0.70;;
39930;SDS011;26635;-35.248;149.138;2023-07-30T11:02:33;0.70;;;0.50;;
39930;SDS011;26635;-35.248;149.138;2023-07-30T11:05:17;1.65;;;0.40;;
39930;SDS011;26635;-35.248;149.138;2023-07-30T11:07:51;1.17;;;0.40;;
39930;SDS011;26635;-35.248;149.138;2023-07-30T11:10:21;1.08;;;0.30;;
39930;SDS011;26635;-35.248;149.138;2023-07-30T11:12:52;2.05;;;0.60;;
39930;SDS011;26635;-35.248;149.138;2023-07-30T11:15:22;1.90;;;0.80;;
39930;SDS011;26635;-35.248;149.138;2023-07-30T11:17:53;1.58;;;0.50;;
39930;SDS011;26635;-35.248;149.138;2023-07-30T11:20:26;2.60;;;0.98;;
39930;SDS011;26635;-35.248;149.138;2023-07-30T11:22:58;1.88;;;0.70;;
39930;SDS011;26635;-35.248;149.138;2023-07-30T11:25:28;1.92;;;0.80;;
39930;SDS011;26635;-35.248;149.138;2023-07-30T11:27:58;1.98;;;0.73;;
39930;SDS011;26635;-35.248;149.138;2023-07-30T11:30:31;1.75;;;0.70;;
39930;SDS011;26635;-35.248;149.138;2023-07-30T11:33:02;1.67;;;0.70;;
39930;SDS011;26635;-35.248;149.138;2023-07-30T11:35:32;3.75;;;2.00;;
39930;SDS011;26635;-35.248;149.138;2023-07-30T11:38:03;3.60;;;1.20;;
39930;SDS011;26635;-35.248;149.138;2023-07-30T11:40:33;0.90;;;0.40;;
39930;SDS011;26635;-35.248;149.138;2023-07-30T11:43:04;3.38;;;0.40;;
39930;SDS011;26635;-35.248;149.138;2023-07-30T11:45:34;2.97;;;0.45;;
39930;SDS011;26635;-35.248;149.138;2023-07-30T11:48:05;3.13;;;0.60;;
39930;SDS011;26635;-35.248;149.138;2023-07-30T11:50:44;0.95;;;0.50;;
39930;SDS011;26635;-35.248;149.138;2023-07-30T11:53:19;0.95;;;0.40;;
39930;SDS011;26635;-35.248;149.138;2023-07-30T11:55:49;1.20;;;0.57;;
39930;SDS011;26635;-35.248;149.138;2023-07-30T11:58:19;2.08;;;0.60;;
39930;SDS011;26635;-35.248;149.138;2023-07-30T12:00:50;0.70;;;0.40;;
39930;SDS011;26635;-35.248;149.138;2023-07-30T12:03:21;2.33;;;1.50;;
39930;SDS011;26635;-35.248;149.138;2023-07-30T12:05:54;3.85;;;0.60;;
39930;SDS011;26635;-35.248;149.138;2023-07-30T12:08:25;1.48;;;0.35;;
39930;SDS011;26635;-35.248;149.138;2023-07-30T12:11:01;1.23;;;0.75;;
39930;SDS011;26635;-35.248;149.138;2023-07-30T12:13:43;1.30;;;0.52;;
39930;SDS011;26635;-35.248;149.138;2023-07-30T12:16:14;2.72;;;0.70;;
39930;SDS011;26635;-35.248;149.138;2023-07-30T12:18:48;1.40;;;0.50;;
39930;SDS011;26635;-35.248;149.138;2023-07-30T12:21:18;3.75;;;0.55;;
39930;SDS011;26635;-35.248;149.138;2023-07-30T12:23:48;1.77;;;0.50;;
39930;SDS011;26635;-35.248;149.138;2023-07-30T12:26:19;1.23;;;0.47;;
39930;SDS011;26635;-35.248;149.138;2023-07-30T12:28:49;1.70;;;0.40;;
39930;SDS011;26635;-35.248;149.138;2023-07-30T12:31:19;1.83;;;0.95;;
39930;SDS011;26635;-35.248;149.138;2023-07-30T12:33:50;1.73;;;0.63;;
39930;SDS011;26635;-35.248;149.138;2023-07-30T12:36:21;1.48;;;0.55;;
39930;SDS011;26635;-35.248;149.138;2023-07-30T12:38:51;1.98;;;0.60;;
39930;SDS011;26635;-35.248;149.138;2023-07-30T12:41:22;1.60;;;0.60;;
39930;SDS011;26635;-35.248;149.138;2023-07-30T12:43:55;1.77;;;0.63;;
39930;SDS011;26635;-35.248;149.138;2023-07-30T12:46:26;1.10;;;0.60;;
39930;SDS011;26635;-35.248;149.138;2023-07-30T12:48:59;0.93;;;0.60;;
39930;SDS011;26635;-35.248;149.138;2023-07-30T12:51:32;1.65;;;1.08;;
39930;SDS011;26635;-35.248;149.138;2023-07-30T12:54:06;2.58;;;0.73;;
39930;SDS011;26635;-35.248;149.138;2023-07-30T12:56:36;0.82;;;0.57;;
39930;SDS011;26635;-35.248;149.138;2023-07-30T12:59:07;2.35;;;0.47;;
39930;SDS011;26635;-35.248;149.138;2023-07-30T13:01:38;1.35;;;0.40;;
39930;SDS011;26635;-35.248;149.138;2023-07-30T13:04:13;1.60;;;0.40;;
39930;SDS011;26635;-35.248;149.138;2023-07-30T13:06:43;1.30;;;0.30;;
39930;SDS011;26635;-35.248;149.138;2023-07-30T13:09:14;0.57;;;0.40;;
39930;SDS011;26635;-35.248;149.138;2023-07-30T13:11:44;2.03;;;0.30;;
39930;SDS011;26635;-35.248;149.138;2023-07-30T13:14:14;2.83;;;0.43;;
39930;SDS011;26635;-35.248;149.138;2023-07-30T13:16:45;3.17;;;0.75;;
39930;SDS011;26635;-35.248;149.138;2023-07-30T13:19:15;1.45;;;0.32;;
39930;SDS011;26635;-35.248;149.138;2023-07-30T13:21:46;1.27;;;0.30;;
39930;SDS011;26635;-35.248;149.138;2023-07-30T13:24:16;1.02;;;0.40;;
39930;SDS011;26635;-35.248;149.138;2023-07-30T13:26:47;3.70;;;0.63;;
39930;SDS011;26635;-35.248;149.138;2023-07-30T13:29:17;0.75;;;0.30;;
39930;SDS011;26635;-35.248;149.138;2023-07-30T13:31:48;1.15;;;0.30;;
39930;SDS011;26635;-35.248;149.138;2023-07-30T13:34:18;1.15;;;0.47;;
39930;SDS011;26635;-35.248;149.138;2023-07-30T13:36:48;0.73;;;0.40;;
39930;SDS011;26635;-35.248;149.138;2023-07-30T13:39:19;2.15;;;0.95;;
39930;SDS011;26635;-35.248;149.138;2023-07-30T13:41:49;3.78;;;1.10;;
39930;SDS011;26635;-35.248;149.138;2023-07-30T13:44:19;0.73;;;0.30;;
39930;SDS011;26635;-35.248;149.138;2023-07-30T13:46:50;1.17;;;0.85;;
39930;SDS011;26635;-35.248;149.138;2023-07-30T13:49:21;1.63;;;0.45;;
39930;SDS011;26635;-35.248;149.138;2023-07-30T13:51:52;1.33;;;0.38;;
39930;SDS011;26635;-35.248;149.138;2023-07-30T13:54:22;0.70;;;0.20;;
39930;SDS011;26635;-35.248;149.138;2023-07-30T13:56:52;3.08;;;0.73;;
39930;SDS011;26635;-35.248;149.138;2023-07-30T13:59:23;1.77;;;0.50;;
39930;SDS011;26635;-35.248;149.138;2023-07-30T14:01:53;1.85;;;1.00;;
39930;SDS011;26635;-35.248;149.138;2023-07-30T14:04:23;3.70;;;1.00;;
39930;SDS011;26635;-35.248;149.138;2023-07-30T14:06:53;3.42;;;1.40;;
39930;SDS011;26635;-35.248;149.138;2023-07-30T14:09:24;3.05;;;1.23;;
39930;SDS011;26635;-35.248;149.138;2023-07-30T14:12:01;2.92;;;1.23;;
39930;SDS011;26635;-35.248;149.138;2023-07-30T14:14:32;2.03;;;0.90;;
39930;SDS011;26635;-35.248;149.138;2023-07-30T14:17:02;1.85;;;1.17;;
39930;SDS011;26635;-35.248;149.138;2023-07-30T14:19:35;1.67;;;0.65;;
39930;SDS011;26635;-35.248;149.138;2023-07-30T14:22:05;2.05;;;0.75;;
39930;SDS011;26635;-35.248;149.138;2023-07-30T14:24:36;4.18;;;0.73;;
39930;SDS011;26635;-35.248;149.138;2023-07-30T14:27:07;0.90;;;0.50;;
39930;SDS011;26635;-35.248;149.138;2023-07-30T14:29:37;1.02;;;0.40;;
39930;SDS011;26635;-35.248;149.138;2023-07-30T14:32:08;2.60;;;0.55;;
39930;SDS011;26635;-35.248;149.138;2023-07-30T14:34:38;1.10;;;0.43;;
39930;SDS011;26635;-35.248;149.138;2023-07-30T14:37:08;1.00;;;0.40;;
39930;SDS011;26635;-35.248;149.138;2023-07-30T14:39:38;2.40;;;0.40;;